NY Terminal Aviation Weather Discussion (AFD) - Prepared: 211 AM EDT FRI SEP 19 2014
HIGH PRESSURE OVER EASTERN CANADA BUILDS SE AND OFF THE NEW
ENGLAND COAST BY THIS EVENING. 

THIS WILL RESULT IN NLY WINDS VEERING AROUND TO THE E/SE BY LATE
THIS AFT/EVE. SOME EARLY GUSTS UP TO 20 KT POSSIBLE THROUGH 15Z.

FORECAST DILEMMA HINGES ON THE DEVELOPMENT OF A STRATUS DECK
AROUND 3-4 KFT. PREFERENCE IS TO HOLD OFF AT THIS TIME DUE TO DRY
LOW LEVELS. THIS MAY BECOME MORE OF A FACTOR LATE FRI NIGHT. THERE
IS SOME GUIDANCE THOUGH WHICH DEVELOPS THESE CLOUDS AS EARLY AS
THIS MORNING.

5 Day General Aviation Outlook:

.OUTLOOK FOR 06Z SATURDAY THROUGH TUESDAY...
.SATURDAY-SUNDAY...POSSIBLE MVFR CONDITIONS EACH MORNING IN 
FOG/CLOUDS...IMPROVING TO VFR BY 15Z.
.SUNDAY NIGHT-MONDAY...CHANCE OF MVFR OR BELOW WITH SCATTERED
SHOWERS. G20-25 KT MON. 
.MONDAY NIGHT-TUESDAY...VFR.


NY Metro Terminal Aviation Weather Summary: (Explanation of Color Coding)
NOTE: All Wind Directions are TRUE (add 13 degrees for magnetic directions). Tail and Crosswind Calculations do account for the magnetic deviation of runways.

Click on the Airport Below for Specific Information at that Terminal

TAF Overview JFK TAF LGA TAF EWR TAF TEB TAF HPN TAF ISP TAF

Jump to AirSpace Impacts Section Condensed "lite" version of SPA page
**************************************************************************************
KJFK Terminal Weather: (Wind Directions Are True, Except Where Noted, ADD 13 degrees for Magnetic)

5MIN KJFK 190745Z 01008KT 10SM CLR 16/11 A3017 -210 72 
     -100 030/08 RMK AO2 SLP217 T01560106
5MIN KJFK 190740Z 02008KT 10SM CLR 16/11 A3017 -210 69 
     0 030/08 RMK AO2
********************************************
****        MAGNETIC DIRECTIONS         ****
********************************************
KJFK 09/19/2014 07:49:32 GMT 030 08 KT
KJFK 09/19/2014 07:47:32 GMT 030 08 KT
KJFK 09/19/2014 07:45:32 GMT 030 07 KT
KJFK 09/19/2014 07:43:32 GMT 020 07 KT
KJFK 09/19/2014 07:41:32 GMT 020 07 KT
KJFK 09/19/2014 07:39:32 GMT 020 08 KT
KJFK 09/19/2014 07:37:32 GMT 020 07 KT
KJFK 09/19/2014 07:35:32 GMT 020 08 KT
KJFK 09/19/2014 07:33:32 GMT 020 08 KT
KJFK 09/19/2014 07:31:32 GMT 020 07 KT
SAUS70 KJFK 190700 RRL
METAR KJFK 190651Z 02009KT 10SM CLR 16/10 A3015 RMK AO2 SLP211
     T01610100
FTNA35 KJFK 190557 RRH
KJFK 190548Z 1906/2012 03012G17KT P6SM SCT070
     FM191500 04013KT P6SM FEW025 SCT050
     FM191800 08012KT P6SM SCT030
     FM192200 12011KT P6SM SCT035
     FM200600 14008KT P6SM SCT030
KJFK Forecaster Comments Not Available at This Time
jfk

JFK Hourly Forecast Temperature (C)

JFK Hourly TMPS
**************************************************************************************
KLGA Terminal Weather: (Wind Directions Are True, Except Where Noted, ADD 13 degrees for Magnetic)

5MIN KLGA 190745Z 01007KT 10SM CLR 16/10 A3017 -200 69 
     -100 020/07 RMK AO2 SLP215 T01560100
5MIN KLGA 190740Z 02008KT 10SM CLR 16/10 A3017 -200 69 
     -100 030/08 RMK AO2
********************************************
****        MAGNETIC DIRECTIONS         ****
********************************************
KLGA 09/19/2014 07:50:01 GMT 040 09 KT
KLGA 09/19/2014 07:47:51 GMT 030 09 KT
KLGA 09/19/2014 07:45:51 GMT 030 10 KT
KLGA 09/19/2014 07:43:51 GMT 030 11 KT
KLGA 09/19/2014 07:42:01 GMT 030 11 KT
KLGA 09/19/2014 07:40:01 GMT 030 11 KT
KLGA 09/19/2014 07:38:00 GMT 030 11 KT
KLGA 09/19/2014 07:36:01 GMT 030 12 KT
KLGA 09/19/2014 07:33:52 GMT 030 12 KT
KLGA 09/19/2014 07:32:01 GMT 030 10 KT
SAUS70 KLGA 190700
METAR KLGA 190651Z 35008KT 10SM CLR 16/10 A3016 RMK AO2 SLP211
     T01560100
FTUS80 KLGA 190551
KLGA 190548Z 1906/2006 03012G18KT P6SM SCT070
     FM191500 05012KT P6SM FEW025 SCT050
     FM191900 07011KT P6SM SCT030
     FM192100 11010KT P6SM SCT035
     FM200300 13010KT P6SM SCT030
KLGA Forecaster Comments Not Available at This Time
lga


**************************************************************************************

KEWR Terminal Weather: (Wind Directions Are True, Except Where Noted, ADD 13 degrees for Magnetic)

5MIN KEWR 190745Z 01011KT 10SM CLR 14/09 A3017 -210 72 
     -200 020/11 RMK AO2 SLP217 T01440094
5MIN KEWR 190740Z 36012KT 10SM CLR 14/09 A3017 -210 72 
     -200 020/12 RMK AO2
********************************************
****        MAGNETIC DIRECTIONS         ****
********************************************
KEWR 09/19/2014 07:49:55 GMT 020 10 KT
KEWR 09/19/2014 07:47:55 GMT 030 12 KT
KEWR 09/19/2014 07:45:17 GMT 030 10 KT
KEWR 09/19/2014 07:42:55 GMT 020 10 KT
KEWR 09/19/2014 07:41:55 GMT 030 12 KT
KEWR 09/19/2014 07:39:55 GMT 030 12 KT
KEWR 09/19/2014 07:36:55 GMT 030 11 KT
KEWR 09/19/2014 07:34:55 GMT 030 13 KT
KEWR 09/19/2014 07:33:55 GMT 030 11 KT
KEWR 09/19/2014 07:31:55 GMT 030 11 KT
SAUS70 KEWR 190700
METAR KEWR 190651Z 01011KT 10SM CLR 15/10 A3016 RMK AO2 SLP214
     T01500100
FTUS80 KEWR 190551
KEWR 190548Z 1906/2012 02012KT P6SM SCT070
     FM191500 05010KT P6SM FEW025 SCT050
     FM191900 09010KT P6SM SCT030
     FM192100 12008KT P6SM SCT035
     FM200600 12005KT P6SM SCT030
KEWR Forecaster Comments Not Available at This Time
ewr
Afternoon EWR Haze Potential Forecast: KEWR Haze Forecast Not Available at This Time
IS NOT AVAILABLE AT THIS TIME


******************************************************************************

KTEB Terminal Weather:
SAUS80 KTEB 190700
METAR KTEB 190651Z 34004KT 10SM CLR 14/09 A3016 RMK AO2 SLP213
     T01440089
FTUS80 KTEB 190551 RRA
KTEB 190548Z 1906/2006 01009KT P6SM SCT070
     FM191400 05009KT P6SM FEW025 SCT050
     FM191800 10008KT P6SM SCT030
     FM192100 13006KT P6SM SCT035
KTEB Forecaster Comments Not Available at This Time
teb

 


**************************************************************************************

KHPN Terminal Weather:
SAUS70 KHPN 190700 RRG
METAR KHPN 190656Z 34003KT 10SM CLR 13/09 A3017 RMK AO2 SLP215
     T01280089
FTUS80 KHPN 190551
KHPN 190548Z 1906/2006 36010KT P6SM SCT070
     FM191500 05009KT P6SM FEW030 SCT050
     FM191800 10008KT P6SM FEW035
     FM192100 13007KT P6SM SCT035
     FM200300 12005KT P6SM SCT030 AMD NOT SKED
KHPN Forecaster Comments Not Available at This Time
HPN


******************************************************************************

KISP Terminal Weather:
SAUS70 KISP 190700 RRF
METAR KISP 190656Z AUTO 02009KT 10SM CLR 15/10 A3014 RMK AO2 SLP204
     T01500100
FTUS80 KISP 190551
KISP 190548Z 1906/2006 01010KT P6SM SCT070
     FM191500 05011KT P6SM FEW025 SCT050
     FM191800 07010KT P6SM SCT030
     FM192100 11009KT P6SM SCT030
     FM200300 13007KT P6SM SCT030
KISP Forecaster Comments Not Available at This Time
ISP

 


ZNY SWAP Season Information

(ZNY SWAP STATEMENT) (Click for PDF File) (ZNY BRIEFING) (Click for PDF File)

*******************************************************
***        NY AIR ROUTE TRAFFIC CONTROL CENTER      ***
***                DAILY SWAP STATEMENT             ***
*******************************************************
NY AIR ROUTE TRAFFIC CONTROL CENTER
DAILY SWAP STATEMENT
THURSDAY, SEPTEMBER 18, 2014
SWAP IS NOT EXPECTED.

ADDT'L INFO:
AZEZU-PAEPR-HANRI(L453-M201): IMPACTS POSSIBLE. 
DITCH: NO IMPACTS EXPECTED.
EAST GATES: NO IMPACTS EXPECTED 
TOMORROW MORNINGS SWAP OUTLOOK:   SWAP IS NOT EXPECTED.
$$
KS






N90 AirSpace Impacts

N90 ZNY Gate TSTM Forecast    SWAP Day One Forecast

SWAP Day One Forecast    SWAP Day Two Outlook

National Collaborative Convective Forecast Product (CCFP) Forecasts (Mar-Oct)


Vertical Wind Profile
Untitled Document